sensor_id;sensor_type;location;lat;lon;timestamp;P1;durP1;ratioP1;P2;durP2;ratioP2
23608;SDS011;11982;50.810;4.442;2022-08-19T00:00:38;18.38;;;16.55;;
23608;SDS011;11982;50.810;4.442;2022-08-19T00:03:04;19.10;;;17.25;;
23608;SDS011;11982;50.810;4.442;2022-08-19T00:05:30;18.27;;;16.10;;
23608;SDS011;11982;50.810;4.442;2022-08-19T00:07:56;18.13;;;15.70;;
23608;SDS011;11982;50.810;4.442;2022-08-19T00:10:22;17.77;;;15.68;;
23608;SDS011;11982;50.810;4.442;2022-08-19T00:12:49;16.55;;;14.90;;
23608;SDS011;11982;50.810;4.442;2022-08-19T00:15:16;18.55;;;15.50;;
23608;SDS011;11982;50.810;4.442;2022-08-19T00:17:44;23.38;;;18.27;;
23608;SDS011;11982;50.810;4.442;2022-08-19T00:20:11;37.33;;;26.15;;
23608;SDS011;11982;50.810;4.442;2022-08-19T00:22:42;33.35;;;24.63;;
23608;SDS011;11982;50.810;4.442;2022-08-19T00:25:09;65.97;;;41.40;;
23608;SDS011;11982;50.810;4.442;2022-08-19T00:27:36;80.45;;;46.95;;
23608;SDS011;11982;50.810;4.442;2022-08-19T00:30:02;92.68;;;52.95;;
23608;SDS011;11982;50.810;4.442;2022-08-19T00:32:29;89.40;;;53.25;;
23608;SDS011;11982;50.810;4.442;2022-08-19T00:34:55;111.05;;;58.92;;
23608;SDS011;11982;50.810;4.442;2022-08-19T00:37:21;99.38;;;57.42;;
23608;SDS011;11982;50.810;4.442;2022-08-19T00:39:48;103.47;;;57.75;;
23608;SDS011;11982;50.810;4.442;2022-08-19T00:42:15;110.30;;;60.97;;
23608;SDS011;11982;50.810;4.442;2022-08-19T00:44:42;111.05;;;61.50;;
23608;SDS011;11982;50.810;4.442;2022-08-19T00:47:08;120.68;;;60.10;;
23608;SDS011;11982;50.810;4.442;2022-08-19T00:49:35;95.65;;;55.88;;
23608;SDS011;11982;50.810;4.442;2022-08-19T00:52:07;93.20;;;53.88;;
23608;SDS011;11982;50.810;4.442;2022-08-19T00:54:37;99.55;;;56.78;;
23608;SDS011;11982;50.810;4.442;2022-08-19T00:57:04;104.88;;;57.65;;
23608;SDS011;11982;50.810;4.442;2022-08-19T00:59:34;107.05;;;60.22;;
23608;SDS011;11982;50.810;4.442;2022-08-19T01:02:02;109.00;;;60.92;;
23608;SDS011;11982;50.810;4.442;2022-08-19T01:04:28;110.55;;;61.75;;
23608;SDS011;11982;50.810;4.442;2022-08-19T01:06:54;107.40;;;61.35;;
23608;SDS011;11982;50.810;4.442;2022-08-19T01:09:21;113.25;;;62.63;;
23608;SDS011;11982;50.810;4.442;2022-08-19T01:11:47;112.97;;;61.60;;
23608;SDS011;11982;50.810;4.442;2022-08-19T01:14:12;101.78;;;58.03;;
23608;SDS011;11982;50.810;4.442;2022-08-19T01:16:40;105.72;;;61.88;;
23608;SDS011;11982;50.810;4.442;2022-08-19T01:19:11;108.55;;;59.28;;
23608;SDS011;11982;50.810;4.442;2022-08-19T01:21:45;94.88;;;55.55;;
23608;SDS011;11982;50.810;4.442;2022-08-19T01:24:16;90.82;;;54.97;;
23608;SDS011;11982;50.810;4.442;2022-08-19T01:26:43;87.80;;;50.80;;
23608;SDS011;11982;50.810;4.442;2022-08-19T01:29:10;80.65;;;49.38;;
23608;SDS011;11982;50.810;4.442;2022-08-19T01:31:36;79.47;;;48.60;;
23608;SDS011;11982;50.810;4.442;2022-08-19T01:34:04;75.72;;;48.75;;
23608;SDS011;11982;50.810;4.442;2022-08-19T01:36:36;76.47;;;47.05;;
23608;SDS011;11982;50.810;4.442;2022-08-19T01:39:11;81.30;;;47.80;;
23608;SDS011;11982;50.810;4.442;2022-08-19T01:41:39;72.43;;;45.85;;
23608;SDS011;11982;50.810;4.442;2022-08-19T01:44:06;73.38;;;45.78;;
23608;SDS011;11982;50.810;4.442;2022-08-19T01:46:32;75.70;;;46.55;;
23608;SDS011;11982;50.810;4.442;2022-08-19T01:48:59;76.20;;;47.00;;
23608;SDS011;11982;50.810;4.442;2022-08-19T01:51:25;72.15;;;46.10;;
23608;SDS011;11982;50.810;4.442;2022-08-19T01:53:51;78.93;;;49.00;;
23608;SDS011;11982;50.810;4.442;2022-08-19T01:56:18;76.10;;;46.30;;
23608;SDS011;11982;50.810;4.442;2022-08-19T01:58:47;71.30;;;45.45;;
23608;SDS011;11982;50.810;4.442;2022-08-19T02:01:20;71.97;;;44.13;;
23608;SDS011;11982;50.810;4.442;2022-08-19T02:03:46;72.45;;;44.53;;
23608;SDS011;11982;50.810;4.442;2022-08-19T02:06:12;66.00;;;39.33;;
23608;SDS011;11982;50.810;4.442;2022-08-19T02:08:39;68.40;;;41.85;;
23608;SDS011;11982;50.810;4.442;2022-08-19T02:11:05;68.95;;;41.90;;
23608;SDS011;11982;50.810;4.442;2022-08-19T02:13:32;69.75;;;42.40;;
23608;SDS011;11982;50.810;4.442;2022-08-19T02:15:58;64.68;;;41.72;;
23608;SDS011;11982;50.810;4.442;2022-08-19T02:18:24;68.57;;;43.30;;
23608;SDS011;11982;50.810;4.442;2022-08-19T02:20:51;66.45;;;42.35;;
23608;SDS011;11982;50.810;4.442;2022-08-19T02:23:17;62.33;;;42.30;;
23608;SDS011;11982;50.810;4.442;2022-08-19T02:25:44;76.32;;;43.63;;
23608;SDS011;11982;50.810;4.442;2022-08-19T02:28:11;69.28;;;43.38;;
23608;SDS011;11982;50.810;4.442;2022-08-19T02:30:37;67.03;;;42.75;;
23608;SDS011;11982;50.810;4.442;2022-08-19T02:33:05;72.72;;;46.42;;
23608;SDS011;11982;50.810;4.442;2022-08-19T02:35:31;69.03;;;43.35;;
23608;SDS011;11982;50.810;4.442;2022-08-19T02:37:56;75.55;;;47.20;;
23608;SDS011;11982;50.810;4.442;2022-08-19T02:40:46;70.93;;;44.80;;
23608;SDS011;11982;50.810;4.442;2022-08-19T02:43:15;67.50;;;41.85;;
23608;SDS011;11982;50.810;4.442;2022-08-19T02:45:41;71.45;;;44.05;;
23608;SDS011;11982;50.810;4.442;2022-08-19T02:48:07;68.25;;;43.42;;
23608;SDS011;11982;50.810;4.442;2022-08-19T02:50:33;69.03;;;42.88;;
23608;SDS011;11982;50.810;4.442;2022-08-19T02:53:02;69.40;;;41.40;;
23608;SDS011;11982;50.810;4.442;2022-08-19T02:55:28;68.78;;;42.85;;
23608;SDS011;11982;50.810;4.442;2022-08-19T02:57:54;66.47;;;41.97;;
23608;SDS011;11982;50.810;4.442;2022-08-19T03:00:19;70.60;;;41.92;;
23608;SDS011;11982;50.810;4.442;2022-08-19T03:02:45;75.97;;;43.20;;
23608;SDS011;11982;50.810;4.442;2022-08-19T03:05:11;67.60;;;41.08;;
23608;SDS011;11982;50.810;4.442;2022-08-19T03:07:37;68.80;;;42.03;;
23608;SDS011;11982;50.810;4.442;2022-08-19T03:10:03;70.47;;;40.95;;
23608;SDS011;11982;50.810;4.442;2022-08-19T03:12:29;72.15;;;42.03;;
23608;SDS011;11982;50.810;4.442;2022-08-19T03:14:55;67.70;;;41.00;;
23608;SDS011;11982;50.810;4.442;2022-08-19T03:17:21;70.07;;;40.38;;
23608;SDS011;11982;50.810;4.442;2022-08-19T03:19:47;65.93;;;39.65;;
23608;SDS011;11982;50.810;4.442;2022-08-19T03:22:13;61.05;;;37.35;;
23608;SDS011;11982;50.810;4.442;2022-08-19T03:24:39;66.75;;;39.65;;
23608;SDS011;11982;50.810;4.442;2022-08-19T03:27:05;65.28;;;38.60;;
23608;SDS011;11982;50.810;4.442;2022-08-19T03:29:31;68.68;;;39.40;;
23608;SDS011;11982;50.810;4.442;2022-08-19T03:31:58;65.80;;;37.35;;
23608;SDS011;11982;50.810;4.442;2022-08-19T03:34:26;63.35;;;37.28;;
23608;SDS011;11982;50.810;4.442;2022-08-19T03:36:54;67.43;;;38.72;;
23608;SDS011;11982;50.810;4.442;2022-08-19T03:39:22;63.05;;;36.97;;
23608;SDS011;11982;50.810;4.442;2022-08-19T03:41:49;67.20;;;38.83;;
23608;SDS011;11982;50.810;4.442;2022-08-19T03:44:17;66.20;;;37.30;;
23608;SDS011;11982;50.810;4.442;2022-08-19T03:46:49;63.83;;;35.63;;
23608;SDS011;11982;50.810;4.442;2022-08-19T03:49:17;65.35;;;36.20;;
23608;SDS011;11982;50.810;4.442;2022-08-19T03:51:44;65.07;;;35.83;;
23608;SDS011;11982;50.810;4.442;2022-08-19T03:54:12;63.83;;;34.95;;
23608;SDS011;11982;50.810;4.442;2022-08-19T03:56:39;66.78;;;36.33;;
23608;SDS011;11982;50.810;4.442;2022-08-19T03:59:07;62.92;;;35.85;;
23608;SDS011;11982;50.810;4.442;2022-08-19T04:01:39;62.08;;;37.10;;
23608;SDS011;11982;50.810;4.442;2022-08-19T04:04:05;64.93;;;35.55;;
23608;SDS011;11982;50.810;4.442;2022-08-19T04:06:32;67.53;;;37.00;;
23608;SDS011;11982;50.810;4.442;2022-08-19T04:09:01;67.57;;;38.03;;
23608;SDS011;11982;50.810;4.442;2022-08-19T04:11:30;68.07;;;38.53;;
23608;SDS011;11982;50.810;4.442;2022-08-19T04:14:01;69.70;;;37.90;;
23608;SDS011;11982;50.810;4.442;2022-08-19T04:16:28;75.00;;;39.95;;
23608;SDS011;11982;50.810;4.442;2022-08-19T04:18:54;74.07;;;38.13;;
23608;SDS011;11982;50.810;4.442;2022-08-19T04:21:25;79.63;;;38.42;;
23608;SDS011;11982;50.810;4.442;2022-08-19T04:23:51;74.28;;;39.10;;
23608;SDS011;11982;50.810;4.442;2022-08-19T04:26:22;79.13;;;39.50;;
23608;SDS011;11982;50.810;4.442;2022-08-19T04:28:50;72.78;;;38.88;;
23608;SDS011;11982;50.810;4.442;2022-08-19T04:31:23;78.78;;;38.83;;
23608;SDS011;11982;50.810;4.442;2022-08-19T04:33:52;71.85;;;38.30;;
23608;SDS011;11982;50.810;4.442;2022-08-19T04:36:20;70.75;;;36.83;;
23608;SDS011;11982;50.810;4.442;2022-08-19T04:38:48;74.35;;;37.65;;
23608;SDS011;11982;50.810;4.442;2022-08-19T04:41:15;77.70;;;38.83;;
23608;SDS011;11982;50.810;4.442;2022-08-19T04:43:59;68.43;;;36.70;;
23608;SDS011;11982;50.810;4.442;2022-08-19T04:46:27;72.70;;;36.72;;
23608;SDS011;11982;50.810;4.442;2022-08-19T04:48:55;71.18;;;37.33;;
23608;SDS011;11982;50.810;4.442;2022-08-19T04:51:22;70.22;;;37.10;;
23608;SDS011;11982;50.810;4.442;2022-08-19T04:53:48;74.97;;;37.50;;
23608;SDS011;11982;50.810;4.442;2022-08-19T04:56:15;78.07;;;38.55;;
23608;SDS011;11982;50.810;4.442;2022-08-19T04:58:42;82.28;;;38.67;;
23608;SDS011;11982;50.810;4.442;2022-08-19T05:01:11;75.78;;;38.50;;
23608;SDS011;11982;50.810;4.442;2022-08-19T05:03:38;79.05;;;38.38;;
23608;SDS011;11982;50.810;4.442;2022-08-19T05:06:08;77.78;;;38.55;;
23608;SDS011;11982;50.810;4.442;2022-08-19T05:08:36;71.05;;;36.80;;
23608;SDS011;11982;50.810;4.442;2022-08-19T05:11:07;75.85;;;38.65;;
23608;SDS011;11982;50.810;4.442;2022-08-19T05:13:36;70.00;;;38.08;;
23608;SDS011;11982;50.810;4.442;2022-08-19T05:16:02;72.00;;;38.03;;
23608;SDS011;11982;50.810;4.442;2022-08-19T05:18:28;71.70;;;37.65;;
23608;SDS011;11982;50.810;4.442;2022-08-19T05:21:13;69.80;;;36.50;;
23608;SDS011;11982;50.810;4.442;2022-08-19T05:24:00;67.45;;;35.42;;
23608;SDS011;11982;50.810;4.442;2022-08-19T05:26:27;68.25;;;33.83;;
23608;SDS011;11982;50.810;4.442;2022-08-19T05:28:53;69.88;;;34.58;;
23608;SDS011;11982;50.810;4.442;2022-08-19T05:31:20;61.00;;;33.95;;
23608;SDS011;11982;50.810;4.442;2022-08-19T05:33:46;65.95;;;33.85;;
23608;SDS011;11982;50.810;4.442;2022-08-19T05:36:13;66.32;;;33.75;;
23608;SDS011;11982;50.810;4.442;2022-08-19T05:38:39;57.60;;;33.15;;
23608;SDS011;11982;50.810;4.442;2022-08-19T05:41:08;59.92;;;32.75;;
23608;SDS011;11982;50.810;4.442;2022-08-19T05:43:35;61.88;;;32.45;;
23608;SDS011;11982;50.810;4.442;2022-08-19T05:46:02;61.55;;;31.50;;
23608;SDS011;11982;50.810;4.442;2022-08-19T05:48:30;55.97;;;30.92;;
23608;SDS011;11982;50.810;4.442;2022-08-19T05:51:03;55.78;;;30.52;;
23608;SDS011;11982;50.810;4.442;2022-08-19T05:53:31;50.03;;;28.15;;
23608;SDS011;11982;50.810;4.442;2022-08-19T05:56:03;52.90;;;28.98;;
23608;SDS011;11982;50.810;4.442;2022-08-19T05:58:29;50.15;;;28.38;;
23608;SDS011;11982;50.810;4.442;2022-08-19T06:00:55;52.13;;;27.65;;
23608;SDS011;11982;50.810;4.442;2022-08-19T06:03:21;40.30;;;25.27;;
23608;SDS011;11982;50.810;4.442;2022-08-19T06:05:47;44.53;;;24.65;;
23608;SDS011;11982;50.810;4.442;2022-08-19T06:08:12;38.38;;;24.27;;
23608;SDS011;11982;50.810;4.442;2022-08-19T06:10:38;35.75;;;21.70;;
23608;SDS011;11982;50.810;4.442;2022-08-19T06:13:04;36.60;;;19.58;;
23608;SDS011;11982;50.810;4.442;2022-08-19T06:15:30;31.67;;;19.73;;
23608;SDS011;11982;50.810;4.442;2022-08-19T06:17:56;30.08;;;17.35;;
23608;SDS011;11982;50.810;4.442;2022-08-19T06:20:22;29.42;;;16.15;;
23608;SDS011;11982;50.810;4.442;2022-08-19T06:22:48;31.38;;;17.13;;
23608;SDS011;11982;50.810;4.442;2022-08-19T06:25:20;25.88;;;15.30;;
23608;SDS011;11982;50.810;4.442;2022-08-19T06:27:45;32.42;;;14.80;;
23608;SDS011;11982;50.810;4.442;2022-08-19T06:30:11;27.92;;;14.52;;
23608;SDS011;11982;50.810;4.442;2022-08-19T06:32:37;28.27;;;15.27;;
23608;SDS011;11982;50.810;4.442;2022-08-19T06:35:03;25.00;;;14.68;;
23608;SDS011;11982;50.810;4.442;2022-08-19T06:37:29;24.98;;;13.93;;
23608;SDS011;11982;50.810;4.442;2022-08-19T06:39:55;23.55;;;12.57;;
23608;SDS011;11982;50.810;4.442;2022-08-19T06:42:22;20.92;;;13.38;;
23608;SDS011;11982;50.810;4.442;2022-08-19T06:44:48;22.52;;;13.10;;
23608;SDS011;11982;50.810;4.442;2022-08-19T06:47:16;26.85;;;13.50;;
23608;SDS011;11982;50.810;4.442;2022-08-19T06:49:43;22.80;;;12.27;;
23608;SDS011;11982;50.810;4.442;2022-08-19T06:52:09;26.35;;;12.00;;
23608;SDS011;11982;50.810;4.442;2022-08-19T06:54:38;23.92;;;12.20;;
23608;SDS011;11982;50.810;4.442;2022-08-19T06:57:04;19.38;;;11.82;;
23608;SDS011;11982;50.810;4.442;2022-08-19T06:59:32;22.33;;;11.98;;
23608;SDS011;11982;50.810;4.442;2022-08-19T07:01:59;21.38;;;10.65;;
23608;SDS011;11982;50.810;4.442;2022-08-19T07:04:29;19.45;;;12.07;;
23608;SDS011;11982;50.810;4.442;2022-08-19T07:07:01;22.67;;;12.02;;
23608;SDS011;11982;50.810;4.442;2022-08-19T07:09:31;20.53;;;13.13;;
23608;SDS011;11982;50.810;4.442;2022-08-19T07:11:57;22.50;;;11.70;;
23608;SDS011;11982;50.810;4.442;2022-08-19T07:14:24;20.42;;;12.32;;
23608;SDS011;11982;50.810;4.442;2022-08-19T07:16:52;16.17;;;11.25;;
23608;SDS011;11982;50.810;4.442;2022-08-19T07:19:23;19.48;;;11.13;;
23608;SDS011;11982;50.810;4.442;2022-08-19T07:21:52;20.50;;;11.07;;
23608;SDS011;11982;50.810;4.442;2022-08-19T07:24:19;20.90;;;11.77;;
23608;SDS011;11982;50.810;4.442;2022-08-19T07:26:48;19.95;;;12.45;;
23608;SDS011;11982;50.810;4.442;2022-08-19T07:29:16;17.95;;;11.07;;
23608;SDS011;11982;50.810;4.442;2022-08-19T07:31:42;19.67;;;10.50;;
23608;SDS011;11982;50.810;4.442;2022-08-19T07:34:09;24.15;;;10.80;;
23608;SDS011;11982;50.810;4.442;2022-08-19T07:36:39;20.98;;;11.38;;
23608;SDS011;11982;50.810;4.442;2022-08-19T07:39:17;21.63;;;10.60;;
23608;SDS011;11982;50.810;4.442;2022-08-19T07:41:48;19.02;;;10.88;;
23608;SDS011;11982;50.810;4.442;2022-08-19T07:44:15;22.15;;;10.43;;
23608;SDS011;11982;50.810;4.442;2022-08-19T07:46:43;16.20;;;10.27;;
23608;SDS011;11982;50.810;4.442;2022-08-19T07:49:12;19.67;;;9.63;;
23608;SDS011;11982;50.810;4.442;2022-08-19T07:51:48;20.48;;;10.38;;
23608;SDS011;11982;50.810;4.442;2022-08-19T07:54:27;17.50;;;9.27;;
23608;SDS011;11982;50.810;4.442;2022-08-19T07:56:54;15.70;;;9.18;;
23608;SDS011;11982;50.810;4.442;2022-08-19T07:59:22;15.25;;;8.77;;
23608;SDS011;11982;50.810;4.442;2022-08-19T08:01:49;18.48;;;9.68;;
23608;SDS011;11982;50.810;4.442;2022-08-19T08:04:16;14.10;;;8.57;;
23608;SDS011;11982;50.810;4.442;2022-08-19T08:07:01;17.85;;;9.25;;
23608;SDS011;11982;50.810;4.442;2022-08-19T08:09:45;17.67;;;8.50;;
23608;SDS011;11982;50.810;4.442;2022-08-19T08:12:19;13.40;;;8.55;;
23608;SDS011;11982;50.810;4.442;2022-08-19T08:14:53;14.68;;;9.02;;
23608;SDS011;11982;50.810;4.442;2022-08-19T08:17:22;16.58;;;9.05;;
23608;SDS011;11982;50.810;4.442;2022-08-19T08:19:49;13.57;;;8.25;;
23608;SDS011;11982;50.810;4.442;2022-08-19T08:22:17;11.20;;;7.38;;
23608;SDS011;11982;50.810;4.442;2022-08-19T08:25:04;13.68;;;7.47;;
23608;SDS011;11982;50.810;4.442;2022-08-19T08:27:36;11.35;;;7.65;;
23608;SDS011;11982;50.810;4.442;2022-08-19T08:30:15;13.98;;;7.03;;
23608;SDS011;11982;50.810;4.442;2022-08-19T08:33:09;10.23;;;6.75;;
23608;SDS011;11982;50.810;4.442;2022-08-19T08:35:58;7.45;;;5.97;;
23608;SDS011;11982;50.810;4.442;2022-08-19T08:38:23;9.93;;;5.57;;
23608;SDS011;11982;50.810;4.442;2022-08-19T08:41:00;11.77;;;6.38;;
23608;SDS011;11982;50.810;4.442;2022-08-19T08:43:38;9.15;;;5.88;;
23608;SDS011;11982;50.810;4.442;2022-08-19T08:46:09;10.13;;;6.15;;
23608;SDS011;11982;50.810;4.442;2022-08-19T08:48:46;12.73;;;5.75;;
23608;SDS011;11982;50.810;4.442;2022-08-19T08:51:43;9.85;;;5.47;;
23608;SDS011;11982;50.810;4.442;2022-08-19T08:54:13;11.30;;;5.60;;
23608;SDS011;11982;50.810;4.442;2022-08-19T08:56:42;8.82;;;6.10;;
23608;SDS011;11982;50.810;4.442;2022-08-19T08:59:12;8.30;;;5.60;;
23608;SDS011;11982;50.810;4.442;2022-08-19T09:01:51;10.52;;;5.93;;
23608;SDS011;11982;50.810;4.442;2022-08-19T09:04:17;8.98;;;6.30;;
23608;SDS011;11982;50.810;4.442;2022-08-19T09:09:40;9.05;;;6.00;;
23608;SDS011;11982;50.810;4.442;2022-08-19T09:15:00;12.40;;;6.28;;
23608;SDS011;11982;50.810;4.442;2022-08-19T09:17:29;9.07;;;5.53;;
23608;SDS011;11982;50.810;4.442;2022-08-19T09:20:03;12.23;;;6.60;;
23608;SDS011;11982;50.810;4.442;2022-08-19T09:22:37;10.75;;;6.75;;
23608;SDS011;11982;50.810;4.442;2022-08-19T09:25:05;11.38;;;7.10;;
23608;SDS011;11982;50.810;4.442;2022-08-19T09:27:32;16.08;;;5.97;;
23608;SDS011;11982;50.810;4.442;2022-08-19T09:30:01;8.38;;;6.10;;
23608;SDS011;11982;50.810;4.442;2022-08-19T09:32:27;10.90;;;5.55;;
23608;SDS011;11982;50.810;4.442;2022-08-19T09:34:53;9.88;;;6.18;;
23608;SDS011;11982;50.810;4.442;2022-08-19T09:37:20;13.80;;;6.40;;
23608;SDS011;11982;50.810;4.442;2022-08-19T09:39:47;12.15;;;5.10;;
23608;SDS011;11982;50.810;4.442;2022-08-19T09:42:12;7.05;;;5.43;;
23608;SDS011;11982;50.810;4.442;2022-08-19T09:44:40;8.48;;;4.90;;
23608;SDS011;11982;50.810;4.442;2022-08-19T09:47:19;10.75;;;6.20;;
23608;SDS011;11982;50.810;4.442;2022-08-19T09:50:00;11.38;;;6.07;;
23608;SDS011;11982;50.810;4.442;2022-08-19T09:52:26;12.95;;;6.82;;
23608;SDS011;11982;50.810;4.442;2022-08-19T09:54:52;15.70;;;6.05;;
23608;SDS011;11982;50.810;4.442;2022-08-19T09:57:30;8.80;;;6.55;;
23608;SDS011;11982;50.810;4.442;2022-08-19T10:00:07;10.73;;;7.07;;
23608;SDS011;11982;50.810;4.442;2022-08-19T10:02:34;11.50;;;6.32;;
23608;SDS011;11982;50.810;4.442;2022-08-19T10:05:00;7.97;;;5.55;;
23608;SDS011;11982;50.810;4.442;2022-08-19T10:07:44;8.35;;;5.20;;
23608;SDS011;11982;50.810;4.442;2022-08-19T10:10:10;7.50;;;5.53;;
23608;SDS011;11982;50.810;4.442;2022-08-19T10:12:36;11.98;;;5.68;;
23608;SDS011;11982;50.810;4.442;2022-08-19T10:15:03;8.27;;;4.90;;
23608;SDS011;11982;50.810;4.442;2022-08-19T10:17:31;8.32;;;5.22;;
23608;SDS011;11982;50.810;4.442;2022-08-19T10:20:00;7.03;;;4.78;;
23608;SDS011;11982;50.810;4.442;2022-08-19T10:22:31;8.10;;;5.53;;
23608;SDS011;11982;50.810;4.442;2022-08-19T10:24:58;9.98;;;5.20;;
23608;SDS011;11982;50.810;4.442;2022-08-19T10:27:24;8.80;;;4.93;;
23608;SDS011;11982;50.810;4.442;2022-08-19T10:29:50;10.75;;;5.60;;
23608;SDS011;11982;50.810;4.442;2022-08-19T10:32:16;9.02;;;5.25;;
23608;SDS011;11982;50.810;4.442;2022-08-19T10:34:41;10.25;;;7.15;;
23608;SDS011;11982;50.810;4.442;2022-08-19T10:37:07;10.40;;;6.75;;
23608;SDS011;11982;50.810;4.442;2022-08-19T10:39:35;9.05;;;6.60;;
23608;SDS011;11982;50.810;4.442;2022-08-19T10:42:04;12.13;;;8.27;;
23608;SDS011;11982;50.810;4.442;2022-08-19T10:44:31;13.02;;;9.05;;
23608;SDS011;11982;50.810;4.442;2022-08-19T10:47:00;12.73;;;7.05;;
23608;SDS011;11982;50.810;4.442;2022-08-19T10:49:26;16.83;;;10.15;;
23608;SDS011;11982;50.810;4.442;2022-08-19T10:51:51;15.85;;;8.40;;
23608;SDS011;11982;50.810;4.442;2022-08-19T10:54:35;14.60;;;9.50;;
23608;SDS011;11982;50.810;4.442;2022-08-19T10:57:20;12.48;;;8.35;;
23608;SDS011;11982;50.810;4.442;2022-08-19T10:59:49;15.88;;;9.77;;
23608;SDS011;11982;50.810;4.442;2022-08-19T11:02:14;12.00;;;9.15;;
23608;SDS011;11982;50.810;4.442;2022-08-19T11:04:40;13.70;;;9.10;;
23608;SDS011;11982;50.810;4.442;2022-08-19T11:07:06;13.07;;;8.98;;
23608;SDS011;11982;50.810;4.442;2022-08-19T11:09:36;11.90;;;8.27;;
23608;SDS011;11982;50.810;4.442;2022-08-19T11:12:04;12.02;;;9.27;;
23608;SDS011;11982;50.810;4.442;2022-08-19T11:14:30;14.43;;;8.10;;
23608;SDS011;11982;50.810;4.442;2022-08-19T11:16:58;10.25;;;8.30;;
23608;SDS011;11982;50.810;4.442;2022-08-19T11:19:23;15.25;;;9.55;;
23608;SDS011;11982;50.810;4.442;2022-08-19T11:21:58;12.68;;;9.35;;
23608;SDS011;11982;50.810;4.442;2022-08-19T11:24:37;15.07;;;9.88;;
23608;SDS011;11982;50.810;4.442;2022-08-19T11:27:10;15.13;;;11.05;;
23608;SDS011;11982;50.810;4.442;2022-08-19T11:29:37;15.48;;;10.05;;
23608;SDS011;11982;50.810;4.442;2022-08-19T11:32:05;16.45;;;10.43;;
23608;SDS011;11982;50.810;4.442;2022-08-19T11:34:32;12.88;;;9.98;;
23608;SDS011;11982;50.810;4.442;2022-08-19T11:36:58;14.35;;;10.15;;
23608;SDS011;11982;50.810;4.442;2022-08-19T11:39:34;14.30;;;10.27;;
23608;SDS011;11982;50.810;4.442;2022-08-19T11:42:20;17.45;;;10.63;;
23608;SDS011;11982;50.810;4.442;2022-08-19T11:45:06;12.50;;;10.55;;
23608;SDS011;11982;50.810;4.442;2022-08-19T11:47:34;15.93;;;10.43;;
23608;SDS011;11982;50.810;4.442;2022-08-19T11:49:59;11.93;;;9.95;;
23608;SDS011;11982;50.810;4.442;2022-08-19T11:52:25;13.15;;;9.63;;
23608;SDS011;11982;50.810;4.442;2022-08-19T11:54:51;10.95;;;8.27;;
23608;SDS011;11982;50.810;4.442;2022-08-19T11:57:17;10.35;;;8.50;;
23608;SDS011;11982;50.810;4.442;2022-08-19T11:59:47;13.50;;;9.20;;
23608;SDS011;11982;50.810;4.442;2022-08-19T12:02:15;12.18;;;8.40;;
23608;SDS011;11982;50.810;4.442;2022-08-19T12:04:40;12.73;;;7.93;;
23608;SDS011;11982;50.810;4.442;2022-08-19T12:07:06;10.95;;;7.60;;
23608;SDS011;11982;50.810;4.442;2022-08-19T12:09:32;8.88;;;7.95;;
23608;SDS011;11982;50.810;4.442;2022-08-19T12:11:59;10.88;;;8.00;;
23608;SDS011;11982;50.810;4.442;2022-08-19T12:14:26;10.98;;;7.93;;
23608;SDS011;11982;50.810;4.442;2022-08-19T12:16:53;10.20;;;7.35;;
23608;SDS011;11982;50.810;4.442;2022-08-19T12:19:19;11.13;;;6.88;;
23608;SDS011;11982;50.810;4.442;2022-08-19T12:21:45;8.27;;;6.75;;
23608;SDS011;11982;50.810;4.442;2022-08-19T12:24:10;8.18;;;6.35;;
23608;SDS011;11982;50.810;4.442;2022-08-19T12:26:36;9.20;;;5.60;;
23608;SDS011;11982;50.810;4.442;2022-08-19T12:29:02;7.82;;;5.55;;
23608;SDS011;11982;50.810;4.442;2022-08-19T12:31:28;8.40;;;5.57;;
23608;SDS011;11982;50.810;4.442;2022-08-19T12:33:54;5.30;;;4.72;;
23608;SDS011;11982;50.810;4.442;2022-08-19T12:36:20;6.20;;;4.70;;
23608;SDS011;11982;50.810;4.442;2022-08-19T12:38:47;4.65;;;3.90;;
23608;SDS011;11982;50.810;4.442;2022-08-19T12:41:14;5.93;;;4.20;;
23608;SDS011;11982;50.810;4.442;2022-08-19T12:43:43;5.10;;;4.20;;
23608;SDS011;11982;50.810;4.442;2022-08-19T12:46:09;7.95;;;3.92;;
23608;SDS011;11982;50.810;4.442;2022-08-19T12:48:35;6.45;;;4.43;;
23608;SDS011;11982;50.810;4.442;2022-08-19T12:51:08;4.93;;;3.47;;
23608;SDS011;11982;50.810;4.442;2022-08-19T12:53:37;5.82;;;3.40;;
23608;SDS011;11982;50.810;4.442;2022-08-19T12:56:02;6.22;;;3.38;;
23608;SDS011;11982;50.810;4.442;2022-08-19T12:58:28;5.38;;;3.42;;
23608;SDS011;11982;50.810;4.442;2022-08-19T13:00:54;3.60;;;2.97;;
23608;SDS011;11982;50.810;4.442;2022-08-19T13:03:20;8.35;;;3.35;;
23608;SDS011;11982;50.810;4.442;2022-08-19T13:05:52;3.20;;;2.90;;
23608;SDS011;11982;50.810;4.442;2022-08-19T13:08:18;6.90;;;2.50;;
23608;SDS011;11982;50.810;4.442;2022-08-19T13:10:43;7.72;;;5.03;;
23608;SDS011;11982;50.810;4.442;2022-08-19T13:13:09;4.22;;;3.00;;
23608;SDS011;11982;50.810;4.442;2022-08-19T13:15:36;3.53;;;2.30;;
23608;SDS011;11982;50.810;4.442;2022-08-19T13:18:05;4.57;;;2.20;;
23608;SDS011;11982;50.810;4.442;2022-08-19T13:20:31;4.57;;;2.22;;
23608;SDS011;11982;50.810;4.442;2022-08-19T13:22:57;4.05;;;2.58;;
23608;SDS011;11982;50.810;4.442;2022-08-19T13:25:23;3.45;;;2.25;;
23608;SDS011;11982;50.810;4.442;2022-08-19T13:27:50;5.35;;;2.47;;
23608;SDS011;11982;50.810;4.442;2022-08-19T13:30:16;4.30;;;2.00;;
23608;SDS011;11982;50.810;4.442;2022-08-19T13:33:02;2.83;;;2.13;;
23608;SDS011;11982;50.810;4.442;2022-08-19T13:35:42;2.30;;;2.10;;
23608;SDS011;11982;50.810;4.442;2022-08-19T13:38:12;5.20;;;2.38;;
23608;SDS011;11982;50.810;4.442;2022-08-19T13:40:39;3.55;;;2.00;;
23608;SDS011;11982;50.810;4.442;2022-08-19T13:43:05;3.85;;;2.65;;
23608;SDS011;11982;50.810;4.442;2022-08-19T13:45:32;5.32;;;2.20;;
23608;SDS011;11982;50.810;4.442;2022-08-19T13:47:59;4.53;;;1.70;;
23608;SDS011;11982;50.810;4.442;2022-08-19T13:50:29;2.65;;;2.40;;
23608;SDS011;11982;50.810;4.442;2022-08-19T13:53:01;4.22;;;2.72;;
23608;SDS011;11982;50.810;4.442;2022-08-19T13:55:45;4.93;;;2.33;;
23608;SDS011;11982;50.810;4.442;2022-08-19T13:58:11;3.53;;;2.40;;
23608;SDS011;11982;50.810;4.442;2022-08-19T14:00:41;3.92;;;2.00;;
23608;SDS011;11982;50.810;4.442;2022-08-19T14:03:09;2.63;;;2.42;;
23608;SDS011;11982;50.810;4.442;2022-08-19T14:05:35;4.90;;;2.38;;
23608;SDS011;11982;50.810;4.442;2022-08-19T14:08:01;6.97;;;2.13;;
23608;SDS011;11982;50.810;4.442;2022-08-19T14:10:28;4.55;;;1.92;;
23608;SDS011;11982;50.810;4.442;2022-08-19T14:12:57;3.10;;;1.90;;
23608;SDS011;11982;50.810;4.442;2022-08-19T14:15:25;6.28;;;1.60;;
23608;SDS011;11982;50.810;4.442;2022-08-19T14:17:52;3.80;;;1.80;;
23608;SDS011;11982;50.810;4.442;2022-08-19T14:20:18;2.63;;;1.60;;
23608;SDS011;11982;50.810;4.442;2022-08-19T14:22:45;3.50;;;1.70;;
23608;SDS011;11982;50.810;4.442;2022-08-19T14:25:18;4.38;;;1.40;;
23608;SDS011;11982;50.810;4.442;2022-08-19T14:27:47;2.60;;;1.92;;
23608;SDS011;11982;50.810;4.442;2022-08-19T14:30:17;5.93;;;1.60;;
23608;SDS011;11982;50.810;4.442;2022-08-19T14:32:52;1.73;;;1.48;;
23608;SDS011;11982;50.810;4.442;2022-08-19T14:35:19;2.28;;;1.73;;
23608;SDS011;11982;50.810;4.442;2022-08-19T14:37:46;2.75;;;1.90;;
23608;SDS011;11982;50.810;4.442;2022-08-19T14:40:14;1.35;;;1.20;;
23608;SDS011;11982;50.810;4.442;2022-08-19T14:42:42;2.17;;;1.52;;
23608;SDS011;11982;50.810;4.442;2022-08-19T14:45:09;1.88;;;1.30;;